Time;durP1;ratioP1;P1;durP2;ratioP2;P2;SDS_P1;SDS_P2;PMS_P1;PMS_P2;Temp;Humidity;BMP_temperature;BMP_pressure;BME280_temperature;BME280_humidity;BME280_pressure;Samples;Min_cycle;Max_cycle;Signal;HPM_P1;HPM_P2
2023/03/05 00:00:12;;;;;;;3.55;1.55;;;3.10;99.90;;;;;;5090521;28;20105;-69
2023/03/05 00:02:39;;;;;;;6.28;1.85;;;3.20;99.90;;;;;;5069722;28;20048;-70
2023/03/05 00:05:07;;;;;;;8.43;1.98;;;3.10;99.90;;;;;;5104668;28;20040;-70
2023/03/05 00:07:34;;;;;;;5.50;2.20;;;3.20;99.90;;;;;;5090794;28;20094;-70
2023/03/05 00:10:02;;;;;;;6.05;2.03;;;3.20;99.90;;;;;;5090248;28;20488;-70
2023/03/05 00:12:29;;;;;;;6.90;1.83;;;3.20;99.90;;;;;;5072794;28;20040;-70
2023/03/05 00:14:56;;;;;;;6.03;1.52;;;3.20;99.90;;;;;;5088381;28;20496;-70
2023/03/05 00:17:25;;;;;;;5.72;1.52;;;3.20;99.90;;;;;;5089825;28;20097;-69
2023/03/05 00:19:52;;;;;;;6.75;1.58;;;3.20;99.90;;;;;;5093397;28;20048;-70
2023/03/05 00:22:18;;;;;;;5.50;1.85;;;3.20;99.90;;;;;;5090481;28;20051;-69
2023/03/05 00:24:45;;;;;;;5.35;1.60;;;3.20;99.90;;;;;;5070799;28;20545;-65
2023/03/05 00:27:13;;;;;;;8.63;2.20;;;3.20;99.90;;;;;;5090190;28;20047;-67
2023/03/05 00:29:40;;;;;;;3.67;1.80;;;3.10;99.90;;;;;;5072203;28;20510;-66
2023/03/05 00:32:07;;;;;;;4.20;1.50;;;3.10;99.90;;;;;;5090385;28;20466;-66
2023/03/05 00:34:36;;;;;;;7.15;1.70;;;3.10;99.90;;;;;;5090796;28;20048;-67
2023/03/05 00:37:03;;;;;;;4.32;1.42;;;3.10;99.90;;;;;;5072604;28;20075;-66
2023/03/05 00:39:30;;;;;;;5.53;1.50;;;3.20;99.90;;;;;;5076491;28;20454;-66
2023/03/05 00:41:57;;;;;;;8.90;1.35;;;3.20;99.90;;;;;;5094175;28;20506;-66
2023/03/05 00:44:24;;;;;;;2.58;1.15;;;3.20;99.90;;;;;;5075517;28;20044;-66
2023/03/05 00:46:51;;;;;;;4.70;1.25;;;3.20;99.90;;;;;;5075038;28;20051;-66
2023/03/05 00:49:18;;;;;;;3.78;1.20;;;3.20;99.90;;;;;;5094161;28;20071;-66
2023/03/05 00:51:46;;;;;;;5.32;1.10;;;3.20;99.90;;;;;;5094021;28;20036;-66
2023/03/05 00:54:13;;;;;;;6.35;1.35;;;3.20;99.90;;;;;;5076412;28;20055;-66
2023/03/05 00:56:40;;;;;;;3.78;1.20;;;3.20;99.90;;;;;;5093821;28;20085;-66
2023/03/05 00:59:07;;;;;;;4.20;1.10;;;3.20;99.90;;;;;;5091821;28;20096;-66
2023/03/05 01:01:34;;;;;;;2.72;0.77;;;3.20;99.90;;;;;;5093783;28;20048;-67
2023/03/05 01:04:01;;;;;;;2.97;1.30;;;3.20;99.90;;;;;;5094192;28;20051;-66
2023/03/05 01:06:29;;;;;;;3.95;1.20;;;3.20;99.90;;;;;;5075145;28;20051;-66
2023/03/05 01:08:58;;;;;;;5.20;1.30;;;3.30;99.90;;;;;;5075022;28;20059;-66
2023/03/05 01:11:25;;;;;;;7.68;1.23;;;3.20;99.90;;;;;;5074955;28;20151;-67
2023/03/05 01:13:52;;;;;;;6.97;1.45;;;3.20;99.90;;;;;;5075329;28;20446;-67
2023/03/05 01:16:19;;;;;;;6.32;1.55;;;3.10;99.90;;;;;;5093028;28;20097;-66
2023/03/05 01:18:46;;;;;;;5.07;1.38;;;3.10;99.90;;;;;;5074724;28;20051;-66
2023/03/05 01:21:12;;;;;;;6.35;1.60;;;3.00;99.90;;;;;;5091645;28;20484;-67
2023/03/05 01:23:40;;;;;;;8.38;1.60;;;3.00;99.90;;;;;;5075387;28;20098;-66
2023/03/05 01:26:08;;;;;;;6.30;1.70;;;2.90;99.90;;;;;;5092959;28;20518;-67
2023/03/05 01:28:37;;;;;;;4.20;1.55;;;2.80;99.90;;;;;;5093393;28;20408;-66
2023/03/05 01:31:07;;;;;;;6.13;1.45;;;2.80;99.90;;;;;;5093417;28;20047;-67
2023/03/05 01:33:34;;;;;;;6.95;1.40;;;2.70;99.90;;;;;;5091816;28;20561;-66
2023/03/05 01:36:01;;;;;;;8.63;1.88;;;2.70;99.90;;;;;;5093717;28;20048;-66
2023/03/05 01:38:28;;;;;;;4.75;1.60;;;2.70;99.90;;;;;;5093406;28;20040;-66
2023/03/05 01:40:55;;;;;;;8.20;1.90;;;2.70;99.90;;;;;;5092638;28;20039;-66
2023/03/05 01:43:26;;;;;;;7.13;2.40;;;2.70;99.90;;;;;;5091230;28;20073;-66
2023/03/05 01:46:23;;;;;;;9.55;2.67;;;2.70;99.90;;;;;;5092819;28;20056;-67
2023/03/05 01:48:53;;;;;;;3.38;1.65;;;2.70;99.90;;;;;;5092178;28;20196;-66
2023/03/05 01:51:24;;;;;;;5.13;1.70;;;2.70;99.90;;;;;;5071503;28;20054;-66
2023/03/05 01:53:51;;;;;;;7.25;1.70;;;2.60;99.90;;;;;;5091705;28;20047;-66
2023/03/05 01:56:19;;;;;;;5.88;1.45;;;2.60;99.90;;;;;;5092001;28;20446;-66
2023/03/05 01:58:47;;;;;;;5.07;1.50;;;2.60;99.90;;;;;;5087844;28;20108;-66
2023/03/05 02:01:15;;;;;;;2.53;1.10;;;2.60;99.90;;;;;;5096785;28;20056;-66
2023/03/05 02:03:42;;;;;;;4.22;1.33;;;2.70;99.90;;;;;;5094162;28;20058;-66
2023/03/05 02:06:10;;;;;;;5.10;1.20;;;2.70;99.90;;;;;;5094290;28;20052;-66
2023/03/05 02:08:37;;;;;;;7.35;1.60;;;2.70;99.90;;;;;;5075432;28;20105;-66
2023/03/05 02:11:04;;;;;;;5.55;1.73;;;2.70;99.90;;;;;;5075905;28;20048;-65
2023/03/05 02:13:34;;;;;;;4.35;1.48;;;2.60;99.90;;;;;;5094845;28;20051;-66
2023/03/05 02:16:02;;;;;;;4.07;1.30;;;2.60;99.90;;;;;;5093580;28;20044;-65
2023/03/05 02:18:30;;;;;;;5.57;1.80;;;2.60;99.90;;;;;;5075478;28;20048;-66
2023/03/05 02:21:04;;;;;;;7.57;1.20;;;2.50;99.90;;;;;;5093502;28;20048;-66
2023/03/05 02:23:35;;;;;;;3.67;1.08;;;2.50;99.90;;;;;;5092690;28;20039;-66
2023/03/05 02:26:02;;;;;;;4.65;1.25;;;2.50;99.90;;;;;;5093849;28;20044;-66
2023/03/05 02:28:35;;;;;;;3.45;1.10;;;2.40;99.90;;;;;;5091734;28;20097;-65
2023/03/05 02:31:07;;;;;;;4.35;1.45;;;2.40;99.90;;;;;;5091345;28;20054;-66
2023/03/05 02:33:34;;;;;;;2.35;0.98;;;2.40;99.90;;;;;;5072742;28;20111;-65
2023/03/05 02:36:03;;;;;;;3.83;1.30;;;2.50;99.90;;;;;;5072060;28;20048;-65
2023/03/05 02:38:30;;;;;;;3.42;1.20;;;2.40;99.90;;;;;;5073598;28;20108;-65
2023/03/05 02:40:56;;;;;;;3.83;1.42;;;2.50;99.90;;;;;;5073533;28;20063;-65
2023/03/05 02:43:23;;;;;;;4.40;1.15;;;2.40;99.90;;;;;;5090639;28;20047;-65
2023/03/05 02:45:50;;;;;;;4.90;1.08;;;2.40;99.90;;;;;;5070794;28;20056;-66
2023/03/05 02:48:17;;;;;;;8.57;1.85;;;2.40;99.90;;;;;;5098886;28;20490;-65
2023/03/05 02:50:45;;;;;;;4.07;1.30;;;2.40;99.90;;;;;;5082048;28;20064;-66
2023/03/05 02:53:13;;;;;;;3.33;1.10;;;2.40;99.90;;;;;;5073220;28;20044;-67
2023/03/05 02:55:40;;;;;;;5.07;1.10;;;2.40;99.90;;;;;;5090394;28;20056;-67
2023/03/05 02:58:07;;;;;;;3.60;1.15;;;2.40;99.90;;;;;;5088370;28;20074;-66
2023/03/05 03:00:34;;;;;;;4.95;1.25;;;2.40;99.90;;;;;;5090359;28;20044;-65
2023/03/05 03:03:01;;;;;;;4.15;1.20;;;2.40;99.90;;;;;;5092911;28;20051;-65
2023/03/05 03:05:28;;;;;;;3.50;1.35;;;2.40;99.90;;;;;;5106607;28;20559;-67
2023/03/05 03:07:54;;;;;;;4.70;1.10;;;2.40;99.90;;;;;;5094111;28;20048;-66
2023/03/05 03:10:23;;;;;;;6.38;1.60;;;2.40;99.90;;;;;;5077354;28;20089;-67
2023/03/05 03:12:50;;;;;;;6.30;1.95;;;2.50;99.90;;;;;;5083146;28;20050;-66
2023/03/05 03:15:18;;;;;;;4.38;1.50;;;2.50;99.90;;;;;;5079536;28;20055;-66
2023/03/05 03:17:45;;;;;;;3.85;1.65;;;2.50;99.90;;;;;;5072816;28;20496;-66
2023/03/05 03:20:15;;;;;;;4.75;1.63;;;2.50;99.90;;;;;;5070139;28;20044;-67
2023/03/05 03:22:43;;;;;;;6.22;1.88;;;2.50;99.90;;;;;;5072859;28;20119;-66
2023/03/05 03:25:10;;;;;;;5.45;1.67;;;2.50;99.90;;;;;;5073184;28;20059;-67
2023/03/05 03:27:39;;;;;;;6.63;1.50;;;2.40;99.90;;;;;;5070223;28;20442;-66
2023/03/05 03:30:07;;;;;;;7.95;1.63;;;2.40;99.90;;;;;;5071069;28;20051;-66
2023/03/05 03:32:34;;;;;;;5.82;2.60;;;2.40;99.90;;;;;;5090467;28;20040;-67
2023/03/05 03:35:02;;;;;;;8.38;1.80;;;2.30;99.90;;;;;;5072717;28;20062;-68
2023/03/05 03:37:29;;;;;;;6.57;1.50;;;2.30;99.90;;;;;;5072622;28;20048;-67
2023/03/05 03:39:56;;;;;;;3.72;1.60;;;2.20;99.90;;;;;;5089555;28;20048;-67
2023/03/05 03:42:23;;;;;;;3.85;1.60;;;2.20;99.90;;;;;;5076322;28;20035;-67
2023/03/05 03:44:52;;;;;;;3.05;1.27;;;2.20;99.90;;;;;;5085966;28;20048;-66
2023/03/05 03:47:19;;;;;;;3.55;1.27;;;2.10;99.90;;;;;;5099810;28;20053;-66
2023/03/05 03:49:46;;;;;;;2.95;1.60;;;2.10;99.90;;;;;;5092365;28;20048;-66
2023/03/05 03:52:13;;;;;;;4.85;1.45;;;2.10;99.90;;;;;;5072411;28;20048;-67
2023/03/05 03:54:40;;;;;;;4.70;1.50;;;2.10;99.90;;;;;;5097185;28;20043;-67
2023/03/05 03:57:07;;;;;;;5.20;1.50;;;2.20;99.90;;;;;;5111070;28;20146;-67
2023/03/05 03:59:34;;;;;;;8.00;2.17;;;2.20;99.90;;;;;;5093174;28;20043;-66
2023/03/05 04:02:02;;;;;;;3.40;1.17;;;2.30;99.90;;;;;;5094831;28;20450;-67
2023/03/05 04:04:29;;;;;;;4.47;1.30;;;2.30;99.90;;;;;;5093631;28;20126;-66
2023/03/05 04:06:56;;;;;;;5.90;1.20;;;2.30;99.90;;;;;;5086164;28;20505;-67
2023/03/05 04:09:23;;;;;;;6.35;1.40;;;2.20;99.90;;;;;;5073918;28;20055;-67
2023/03/05 04:11:50;;;;;;;6.05;1.52;;;2.20;99.90;;;;;;5074684;28;20056;-66
2023/03/05 04:14:16;;;;;;;4.65;1.17;;;2.10;99.90;;;;;;5073681;28;20458;-70
2023/03/05 04:16:43;;;;;;;4.38;1.25;;;2.10;99.90;;;;;;5095517;28;20055;-70
2023/03/05 04:19:12;;;;;;;2.70;1.23;;;2.10;99.90;;;;;;5094157;28;20048;-70
2023/03/05 04:21:38;;;;;;;8.27;1.50;;;2.00;99.90;;;;;;5095717;28;20044;-70
2023/03/05 04:24:07;;;;;;;4.75;1.52;;;2.00;99.90;;;;;;5075540;28;20036;-70
2023/03/05 04:26:34;;;;;;;3.63;1.17;;;2.00;99.90;;;;;;5077413;28;20048;-71
2023/03/05 04:29:01;;;;;;;3.97;1.30;;;2.00;99.90;;;;;;5085562;28;20109;-70
2023/03/05 04:31:27;;;;;;;5.30;1.40;;;2.00;99.90;;;;;;5095750;28;20094;-69
2023/03/05 04:33:54;;;;;;;4.70;1.60;;;2.00;99.90;;;;;;5077777;28;20484;-69
2023/03/05 04:36:22;;;;;;;3.65;1.30;;;2.00;99.90;;;;;;5076508;28;20557;-69
2023/03/05 04:38:49;;;;;;;7.80;1.30;;;2.00;99.90;;;;;;5095097;28;20040;-69
2023/03/05 04:41:17;;;;;;;9.15;1.63;;;2.10;99.90;;;;;;5095606;28;20302;-68
2023/03/05 04:43:44;;;;;;;2.90;1.38;;;2.10;99.90;;;;;;5095023;28;20040;-69
2023/03/05 04:46:10;;;;;;;4.20;1.38;;;2.10;99.90;;;;;;5095420;28;20101;-69
2023/03/05 04:48:37;;;;;;;3.65;1.30;;;2.10;99.90;;;;;;5075974;28;20407;-69
2023/03/05 04:51:05;;;;;;;4.93;1.27;;;2.10;99.90;;;;;;5076326;28;20043;-70
2023/03/05 04:53:34;;;;;;;2.75;1.48;;;2.00;99.90;;;;;;5077092;28;20506;-70
2023/03/05 04:56:01;;;;;;;6.68;1.20;;;2.00;99.90;;;;;;5076852;28;20044;-70
2023/03/05 04:58:28;;;;;;;5.25;1.73;;;2.00;99.90;;;;;;5075769;28;20139;-70
2023/03/05 05:01:00;;;;;;;6.13;2.00;;;2.10;99.90;;;;;;5094175;28;20453;-66
2023/03/05 05:03:27;;;;;;;3.70;1.38;;;2.10;99.90;;;;;;5076419;28;20127;-66
2023/03/05 05:05:55;;;;;;;3.72;1.30;;;2.10;99.90;;;;;;5093721;28;20051;-66
2023/03/05 05:08:23;;;;;;;6.75;1.25;;;2.20;99.90;;;;;;5076588;28;20463;-66
2023/03/05 05:10:58;;;;;;;4.03;1.10;;;2.20;99.90;;;;;;5091921;28;21267;-66
2023/03/05 05:13:25;;;;;;;5.55;1.17;;;2.20;99.90;;;;;;5093030;28;20040;-65
2023/03/05 05:15:52;;;;;;;4.00;1.10;;;2.10;99.90;;;;;;5094524;28;20127;-66
2023/03/05 05:18:19;;;;;;;2.33;0.85;;;2.10;99.90;;;;;;5093702;28;20434;-67
2023/03/05 05:20:47;;;;;;;4.95;1.00;;;2.10;99.90;;;;;;5090012;28;20047;-66
2023/03/05 05:23:14;;;;;;;6.07;1.00;;;2.10;99.90;;;;;;5075683;28;20035;-65
2023/03/05 05:25:42;;;;;;;6.47;1.17;;;3.10;99.90;;;;;;5086046;28;20051;-66
2023/03/05 05:28:11;;;;;;;4.50;1.00;;;2.10;99.90;;;;;;5094254;28;20048;-65
2023/03/05 05:30:38;;;;;;;3.95;1.00;;;2.10;99.90;;;;;;5094339;28;20101;-66
2023/03/05 05:33:05;;;;;;;2.97;0.90;;;2.20;99.90;;;;;;5093805;28;20048;-65
2023/03/05 05:35:32;;;;;;;3.80;1.30;;;2.20;99.90;;;;;;5076346;28;20100;-65
2023/03/05 05:37:59;;;;;;;5.72;1.33;;;2.20;99.90;;;;;;5094199;28;20125;-65
2023/03/05 05:40:26;;;;;;;3.92;0.90;;;2.20;99.90;;;;;;5093535;28;20048;-65
2023/03/05 05:42:53;;;;;;;1.52;0.80;;;2.20;99.90;;;;;;5074849;28;20043;-65
2023/03/05 05:45:21;;;;;;;5.00;1.55;;;2.10;99.90;;;;;;5093639;28;20169;-66
2023/03/05 05:47:48;;;;;;;4.63;1.10;;;2.10;99.90;;;;;;5093046;28;20052;-65
2023/03/05 05:50:15;;;;;;;2.60;1.35;;;2.00;99.90;;;;;;5093395;28;20040;-64
2023/03/05 05:52:42;;;;;;;3.58;1.00;;;2.00;99.90;;;;;;5075339;28;20439;-66
2023/03/05 05:55:10;;;;;;;4.40;1.05;;;1.90;99.90;;;;;;5091819;28;20450;-66
2023/03/05 05:57:37;;;;;;;3.33;0.90;;;1.80;99.90;;;;;;5075438;28;20048;-66
2023/03/05 06:00:07;;;;;;;4.28;1.38;;;1.80;99.90;;;;;;5092989;28;20044;-66
2023/03/05 06:02:38;;;;;;;2.67;1.02;;;1.80;99.90;;;;;;5090766;28;20519;-66
2023/03/05 06:05:05;;;;;;;;;;;1.70;99.90;;;;;;5072768;28;20498;-66
2023/03/05 06:07:33;;;;;;;3.33;1.02;;;1.70;99.90;;;;;;5073601;28;19951;-65
2023/03/05 06:10:00;;;;;;;3.05;1.00;;;1.60;99.90;;;;;;5090816;28;20406;-66
2023/03/05 06:12:27;;;;;;;3.05;1.30;;;1.60;99.90;;;;;;5096629;28;20104;-64
2023/03/05 06:14:54;;;;;;;3.75;1.20;;;1.60;99.90;;;;;;5093451;28;20085;-64
2023/03/05 06:17:21;;;;;;;4.30;1.15;;;1.50;99.90;;;;;;5092638;28;21300;-65
2023/03/05 06:19:49;;;;;;;2.08;1.35;;;1.50;99.90;;;;;;5074994;28;20112;-66
2023/03/05 06:22:16;;;;;;;2.85;0.93;;;1.50;99.90;;;;;;5091900;28;20499;-66
2023/03/05 06:24:43;;;;;;;2.92;1.00;;;1.50;99.90;;;;;;5092664;28;20457;-67
2023/03/05 06:27:10;;;;;;;3.45;1.30;;;1.40;99.90;;;;;;5074095;28;20059;-66
2023/03/05 06:29:37;;;;;;;3.28;1.20;;;1.40;99.90;;;;;;5062419;28;20059;-66
2023/03/05 06:32:04;;;;;;;6.10;1.70;;;1.50;99.90;;;;;;5081509;28;20056;-66
2023/03/05 06:34:31;;;;;;;4.53;1.48;;;1.50;99.90;;;;;;5069402;28;20047;-67
2023/03/05 06:36:59;;;;;;;4.40;1.45;;;1.50;99.90;;;;;;5092286;28;20051;-66
2023/03/05 06:39:26;;;;;;;6.53;1.42;;;1.50;99.90;;;;;;5089055;28;20043;-66
2023/03/05 06:41:53;;;;;;;3.00;1.17;;;1.50;99.90;;;;;;5083491;28;20148;-67
2023/03/05 06:44:20;;;;;;;4.15;1.48;;;1.60;99.90;;;;;;5067381;28;20464;-66
2023/03/05 06:46:47;;;;;;;7.20;1.30;;;1.60;99.90;;;;;;5068900;28;20048;-66
2023/03/05 06:49:14;;;;;;;5.93;1.30;;;1.60;99.90;;;;;;5088921;28;20101;-65
2023/03/05 06:51:41;;;;;;;3.63;1.40;;;1.70;99.90;;;;;;5069224;28;20063;-65
2023/03/05 06:54:12;;;;;;;5.25;1.88;;;1.70;99.90;;;;;;5084897;28;20415;-65
2023/03/05 06:56:40;;;;;;;4.45;1.40;;;1.80;99.90;;;;;;5088404;28;21342;-65
2023/03/05 06:59:08;;;;;;;7.38;1.73;;;1.80;99.90;;;;;;5087019;28;20047;-66
2023/03/05 07:01:35;;;;;;;3.42;1.20;;;1.90;99.90;;;;;;5050426;28;1107988;-65
2023/03/05 07:04:03;;;;;;;6.07;1.50;;;2.00;99.90;;;;;;5066867;28;20119;-66
2023/03/05 07:06:32;;;;;;;8.80;1.75;;;2.00;99.90;;;;;;5085521;28;20466;-65
2023/03/05 07:09:01;;;;;;;6.63;1.73;;;2.30;99.90;;;;;;5072377;28;20056;-66
2023/03/05 07:11:30;;;;;;;3.40;1.30;;;2.30;99.90;;;;;;5091913;28;20132;-65
2023/03/05 07:13:56;;;;;;;6.30;1.40;;;2.30;99.90;;;;;;5087626;28;20450;-66
2023/03/05 07:16:26;;;;;;;4.35;1.75;;;2.40;99.90;;;;;;5084418;28;20044;-67
2023/03/05 07:18:54;;;;;;;5.68;1.77;;;2.40;99.90;;;;;;5087149;28;20048;-66
2023/03/05 07:21:22;;;;;;;5.65;1.75;;;2.60;99.90;;;;;;5088983;28;20043;-66
2023/03/05 07:23:50;;;;;;;7.05;2.25;;;2.70;99.90;;;;;;5085213;28;20527;-65
2023/03/05 07:26:17;;;;;;;7.20;1.45;;;2.90;99.90;;;;;;5085696;28;20058;-66
2023/03/05 07:28:45;;;;;;;3.65;1.48;;;3.10;99.90;;;;;;5091280;28;20446;-66
2023/03/05 07:31:14;;;;;;;9.10;1.50;;;3.30;99.90;;;;;;5069841;28;20052;-65
2023/03/05 07:33:41;;;;;;;6.47;1.55;;;3.40;99.90;;;;;;5087748;28;20131;-66
2023/03/05 07:36:09;;;;;;;6.78;1.92;;;3.50;99.90;;;;;;5070970;28;20051;-65
2023/03/05 07:38:36;;;;;;;6.25;1.60;;;3.50;99.90;;;;;;5068401;28;20052;-66
2023/03/05 07:41:04;;;;;;;2.80;1.50;;;3.60;99.90;;;;;;5087387;28;20044;-66
2023/03/05 07:43:31;;;;;;;8.23;1.52;;;3.70;99.90;;;;;;5087393;28;20044;-66
2023/03/05 07:45:59;;;;;;;4.80;1.42;;;3.80;99.90;;;;;;5092361;28;20055;-65
2023/03/05 07:48:26;;;;;;;5.15;1.40;;;4.00;99.90;;;;;;5087903;28;20047;-66
2023/03/05 07:51:01;;;;;;;8.13;1.60;;;4.00;99.90;;;;;;5087261;28;20052;-66
2023/03/05 07:53:28;;;;;;;4.03;1.60;;;4.20;99.90;;;;;;5080845;28;20127;-65
2023/03/05 07:55:55;;;;;;;10.25;1.80;;;4.20;99.90;;;;;;5083552;28;20040;-64
2023/03/05 07:58:22;;;;;;;5.70;1.70;;;4.20;99.90;;;;;;5088632;28;20055;-66
2023/03/05 08:00:49;;;;;;;5.03;1.50;;;4.50;99.90;;;;;;5065853;28;20056;-65
2023/03/05 08:03:18;;;;;;;4.50;1.60;;;4.90;99.90;;;;;;5086825;28;20044;-65
2023/03/05 08:05:45;;;;;;;3.92;1.42;;;5.20;99.90;;;;;;5068441;28;20059;-66
2023/03/05 08:08:12;;;;;;;5.78;1.60;;;5.40;99.90;;;;;;5083457;28;20044;-65
2023/03/05 08:10:39;;;;;;;3.05;1.30;;;5.80;99.90;;;;;;5068299;28;20047;-66
2023/03/05 08:13:06;;;;;;;6.10;1.55;;;6.30;99.90;;;;;;5088078;28;20051;-66
2023/03/05 08:15:33;;;;;;;8.35;1.67;;;6.60;99.90;;;;;;5065193;28;20060;-67
2023/03/05 08:18:00;;;;;;;7.00;1.70;;;6.70;99.90;;;;;;5070903;28;20052;-66
2023/03/05 08:20:29;;;;;;;6.15;1.48;;;6.70;99.90;;;;;;5067215;28;20059;-66
2023/03/05 08:22:56;;;;;;;5.22;1.55;;;6.70;99.90;;;;;;5067065;28;20385;-67
2023/03/05 08:25:22;;;;;;;4.10;1.45;;;6.80;99.90;;;;;;5087665;28;20097;-65
2023/03/05 08:27:49;;;;;;;5.53;1.48;;;7.00;99.90;;;;;;5085848;28;20810;-65
2023/03/05 08:30:20;;;;;;;6.70;1.63;;;7.10;99.90;;;;;;5087895;28;20098;-66
2023/03/05 08:32:49;;;;;;;4.70;1.55;;;7.70;99.90;;;;;;5088217;28;20041;-66
2023/03/05 08:35:16;;;;;;;3.85;1.40;;;8.10;99.90;;;;;;5086068;28;20154;-66
2023/03/05 08:37:44;;;;;;;5.68;1.42;;;8.60;99.90;;;;;;5071452;28;20056;-65
2023/03/05 08:40:12;;;;;;;6.30;1.70;;;9.00;99.90;;;;;;5087422;28;20051;-66
2023/03/05 08:42:39;;;;;;;5.20;1.60;;;9.40;99.90;;;;;;5066469;28;20056;-66
2023/03/05 08:45:08;;;;;;;7.07;1.80;;;9.60;99.90;;;;;;5067915;28;20051;-67
2023/03/05 08:47:34;;;;;;;4.07;1.33;;;9.70;99.90;;;;;;5071836;28;20051;-66
2023/03/05 08:50:01;;;;;;;7.82;1.67;;;9.40;99.90;;;;;;5067890;28;20093;-67
2023/03/05 08:52:28;;;;;;;4.88;1.50;;;9.50;99.90;;;;;;5071292;28;20565;-66
2023/03/05 08:54:57;;;;;;;6.78;1.77;;;9.20;99.90;;;;;;5086377;28;20040;-65
2023/03/05 08:57:23;;;;;;;6.72;1.60;;;8.90;99.90;;;;;;5070581;28;20093;-67
2023/03/05 08:59:50;;;;;;;5.60;1.80;;;8.90;99.90;;;;;;5089721;28;20048;-66
2023/03/05 09:02:17;;;;;;;6.43;1.60;;;9.20;99.90;;;;;;5089789;28;20507;-66
2023/03/05 09:04:44;;;;;;;5.82;1.25;;;9.20;99.90;;;;;;5089322;28;20044;-66
2023/03/05 09:07:11;;;;;;;5.00;1.75;;;8.90;99.90;;;;;;5089728;28;20500;-67
2023/03/05 09:09:39;;;;;;;2.38;0.88;;;8.40;99.90;;;;;;5091173;28;20522;-66
2023/03/05 09:12:08;;;;;;;4.68;1.20;;;7.80;99.90;;;;;;5089912;28;20464;-67
2023/03/05 09:14:35;;;;;;;2.53;0.93;;;7.20;99.90;;;;;;5073183;28;20060;-67
2023/03/05 09:17:02;;;;;;;5.10;1.00;;;6.90;99.90;;;;;;5071241;28;20401;-66
2023/03/05 09:19:29;;;;;;;1.42;0.77;;;6.40;99.90;;;;;;5073506;28;20066;-66
2023/03/05 09:21:56;;;;;;;1.77;0.95;;;6.10;99.90;;;;;;5089549;28;20047;-67
2023/03/05 09:24:23;;;;;;;3.72;0.80;;;6.00;99.90;;;;;;5071995;28;20518;-67
2023/03/05 09:26:50;;;;;;;1.60;0.80;;;5.70;99.90;;;;;;5089980;28;20051;-67
2023/03/05 09:29:18;;;;;;;5.15;0.85;;;5.90;99.90;;;;;;5090199;28;20051;-66
2023/03/05 09:31:47;;;;;;;5.30;1.00;;;7.00;99.90;;;;;;5089448;28;20048;-66
2023/03/05 09:34:14;;;;;;;4.28;1.70;;;8.20;99.90;;;;;;5067680;28;20131;-68
2023/03/05 09:36:41;;;;;;;4.53;1.00;;;9.20;99.90;;;;;;5088803;28;20159;-67
2023/03/05 09:39:08;;;;;;;2.95;1.10;;;10.00;99.90;;;;;;5087674;28;20040;-67
2023/03/05 09:41:57;;;;;;;3.92;1.10;;;10.90;99.90;;;;;;5086630;28;20051;-67
2023/03/05 09:44:35;;;;;;;5.72;1.20;;;11.70;99.90;;;;;;5069998;28;20052;-67
2023/03/05 09:47:16;;;;;;;7.50;1.35;;;12.00;99.90;;;;;;5089612;28;20051;-67
2023/03/05 09:49:50;;;;;;;6.25;1.55;;;11.70;99.90;;;;;;5087896;28;20048;-66
2023/03/05 09:52:21;;;;;;;3.97;1.13;;;11.80;99.90;;;;;;5071764;28;20052;-67
2023/03/05 09:54:54;;;;;;;3.72;1.50;;;12.00;99.90;;;;;;5089050;28;20051;-68
2023/03/05 09:57:25;;;;;;;5.38;1.30;;;12.10;99.90;;;;;;5087575;28;20095;-67
2023/03/05 09:59:57;;;;;;;5.72;1.10;;;12.20;99.90;;;;;;5069004;28;20113;-67
2023/03/05 10:02:28;;;;;;;5.45;1.30;;;11.70;99.90;;;;;;5070911;28;20093;-68
2023/03/05 10:05:03;;;;;;;5.70;1.63;;;10.90;99.90;;;;;;5090185;28;20048;-67
2023/03/05 10:07:32;;;;;;;3.30;1.30;;;10.10;99.90;;;;;;5090596;28;20498;-67
2023/03/05 10:10:01;;;;;;;4.55;1.13;;;9.60;99.90;;;;;;5086827;28;20079;-67
2023/03/05 10:12:41;;;;;;;4.47;1.40;;;9.30;99.90;;;;;;5090084;28;20395;-67
2023/03/05 10:15:13;;;;;;;8.75;1.52;;;9.20;99.90;;;;;;5070486;28;20080;-66
2023/03/05 10:17:54;;;;;;;8.68;1.20;;;8.90;99.90;;;;;;5086018;28;20052;-67
2023/03/05 10:20:49;;;;;;;4.45;1.60;;;8.90;99.90;;;;;;5083461;28;20173;-67
2023/03/05 10:23:36;;;;;;;4.47;1.30;;;9.00;99.90;;;;;;5086455;28;20494;-66
2023/03/05 10:26:10;;;;;;;3.47;1.20;;;9.40;99.90;;;;;;5093025;28;20446;-67
2023/03/05 10:28:48;;;;;;;5.72;1.15;;;10.10;99.90;;;;;;5072435;28;20055;-66
2023/03/05 10:31:39;;;;;;;7.00;1.58;;;10.70;99.90;;;;;;5067837;28;20048;-68
2023/03/05 10:34:32;;;;;;;6.07;1.45;;;11.60;99.90;;;;;;5070390;28;20048;-68
2023/03/05 10:37:32;;;;;;;6.65;1.48;;;12.30;99.90;;;;;;5090020;28;20408;-68
2023/03/05 10:40:17;;;;;;;6.65;1.23;;;13.20;99.90;;;;;;5083306;28;20048;-67
2023/03/05 10:42:53;;;;;;;3.53;1.15;;;12.90;99.90;;;;;;5067972;28;20055;-68
2023/03/05 10:45:24;;;;;;;7.13;1.50;;;12.50;99.90;;;;;;5084612;28;20445;-68
2023/03/05 10:47:55;;;;;;;5.78;1.25;;;12.60;99.90;;;;;;5085713;28;20098;-68
2023/03/05 10:50:25;;;;;;;7.30;1.42;;;13.10;99.90;;;;;;5086642;28;20040;-68
2023/03/05 10:53:05;;;;;;;2.95;1.15;;;13.30;99.90;;;;;;5089628;28;20054;-66
2023/03/05 10:55:32;;;;;;;6.28;1.40;;;13.10;99.90;;;;;;5072826;28;20051;-67
2023/03/05 10:58:00;;;;;;;3.92;1.30;;;12.40;99.90;;;;;;5091695;28;20051;-67
2023/03/05 11:00:28;;;;;;;5.65;1.08;;;12.30;99.90;;;;;;5069426;28;20519;-68
2023/03/05 11:02:59;;;;;;;5.72;1.50;;;13.40;99.90;;;;;;5065199;28;20051;-67
2023/03/05 11:05:42;;;;;;;5.03;1.13;;;14.40;99.50;;;;;;5085874;28;20511;-67
2023/03/05 11:08:24;;;;;;;5.50;1.15;;;14.40;98.50;;;;;;5085836;28;20415;-67
2023/03/05 11:11:04;;;;;;;2.83;1.35;;;13.60;98.60;;;;;;5067353;28;20538;-66
2023/03/05 11:13:32;;;;;;;5.60;1.40;;;12.80;99.90;;;;;;5085606;28;20637;-67
2023/03/05 11:16:00;;;;;;;4.05;1.27;;;12.40;99.90;;;;;;5085644;28;20472;-67
2023/03/05 11:18:33;;;;;;;4.75;1.33;;;13.10;99.90;;;;;;5088247;28;20052;-73
2023/03/05 11:21:09;;;;;;;5.00;1.52;;;14.70;99.90;;;;;;5087268;28;20052;-76
2023/03/05 11:23:37;;;;;;;3.22;1.05;;;15.90;96.90;;;;;;5088535;28;20400;-67
2023/03/05 11:26:16;;;;;;;2.58;1.17;;;16.40;92.50;;;;;;5065621;28;20098;-67
2023/03/05 11:28:57;;;;;;;4.13;0.90;;;16.00;93.40;;;;;;5086569;28;20055;-67
2023/03/05 11:31:26;;;;;;;2.70;0.77;;;15.40;92.40;;;;;;5085998;28;20048;-67
2023/03/05 11:34:00;;;;;;;5.55;1.30;;;14.50;93.90;;;;;;5084769;28;20442;-67
2023/03/05 11:36:30;;;;;;;3.03;0.77;;;14.10;94.80;;;;;;5093526;28;20089;-67
2023/03/05 11:39:08;;;;;;;5.07;1.50;;;13.60;95.60;;;;;;5085747;28;20052;-66
2023/03/05 11:41:39;;;;;;;3.47;0.90;;;12.70;95.60;;;;;;5082413;28;20499;-67
2023/03/05 11:44:12;;;;;;;3.83;0.95;;;13.50;98.00;;;;;;5066471;28;20066;-66
2023/03/05 11:46:43;;;;;;;3.30;0.90;;;14.20;95.90;;;;;;5083254;28;20036;-67
2023/03/05 11:49:16;;;;;;;5.40;1.33;;;14.00;96.00;;;;;;5087806;28;20431;-67
2023/03/05 11:51:49;;;;;;;5.65;1.30;;;13.60;96.70;;;;;;5068474;28;20113;-67
2023/03/05 11:54:22;;;;;;;3.08;0.82;;;13.30;96.50;;;;;;5067169;28;20052;-67
2023/03/05 11:56:51;;;;;;;2.45;1.00;;;13.40;95.90;;;;;;5086990;28;20040;-67
2023/03/05 11:59:24;;;;;;;4.72;0.90;;;13.80;96.10;;;;;;5089271;28;20044;-65
2023/03/05 12:01:54;;;;;;;4.13;1.00;;;13.10;96.30;;;;;;5071021;28;20054;-67
2023/03/05 12:04:23;;;;;;;3.53;1.02;;;12.80;96.30;;;;;;5069004;28;20040;-67
2023/03/05 12:06:52;;;;;;;4.38;1.27;;;12.20;97.00;;;;;;5068352;28;20098;-75
2023/03/05 12:09:27;;;;;;;4.50;1.17;;;11.80;98.60;;;;;;5070119;28;20052;-67
2023/03/05 12:12:01;;;;;;;3.95;1.10;;;11.60;98.50;;;;;;5094983;28;20052;-67
2023/03/05 12:14:36;;;;;;;4.30;1.05;;;12.30;98.20;;;;;;5085197;28;20507;-67
2023/03/05 12:17:09;;;;;;;3.35;1.00;;;13.30;97.20;;;;;;5070043;28;20565;-67
2023/03/05 12:19:47;;;;;;;5.97;1.48;;;13.80;95.30;;;;;;5088159;28;20450;-67
2023/03/05 12:22:21;;;;;;;7.47;1.40;;;14.20;95.10;;;;;;5085905;28;20045;-67
2023/03/05 12:24:48;;;;;;;5.65;1.30;;;13.80;95.00;;;;;;5086659;28;20052;-66
2023/03/05 12:27:17;;;;;;;3.20;1.00;;;13.30;95.60;;;;;;5084861;28;20043;-68
2023/03/05 12:29:49;;;;;;;3.28;1.15;;;13.20;96.30;;;;;;5106369;28;20050;-67
2023/03/05 12:32:59;;;;;;;2.42;0.98;;;13.10;96.80;;;;;;5069454;28;20054;-66
2023/03/05 12:35:35;;;;;;;3.25;1.10;;;13.70;96.00;;;;;;5087532;28;20072;-67
2023/03/05 12:38:30;;;;;;;3.85;1.00;;;14.50;94.30;;;;;;5088476;28;20425;-66
2023/03/05 12:41:43;;;;;;;4.75;1.17;;;14.60;94.70;;;;;;5072161;28;20472;-67
2023/03/05 12:44:20;;;;;;;5.05;1.40;;;14.50;94.00;;;;;;5075525;28;20052;-66
2023/03/05 12:47:22;;;;;;;5.95;1.58;;;13.70;96.00;;;;;;5070525;28;20055;-66
2023/03/05 12:49:50;;;;;;;4.68;1.10;;;12.60;95.70;;;;;;5070157;28;20056;-65
2023/03/05 12:52:25;;;;;;;4.25;1.63;;;12.80;96.90;;;;;;5069498;28;20052;-66
2023/03/05 12:55:19;;;;;;;6.30;1.63;;;12.80;97.20;;;;;;5086611;28;20059;-66
2023/03/05 12:57:47;;;;;;;5.15;1.33;;;12.40;95.90;;;;;;5080352;28;20047;-66
2023/03/05 13:00:20;;;;;;;4.70;1.05;;;13.30;96.10;;;;;;5091744;28;20109;-67
2023/03/05 13:02:54;;;;;;;2.47;1.30;;;13.10;94.20;;;;;;5069563;28;20131;-67
2023/03/05 13:05:25;;;;;;;4.20;1.13;;;13.00;94.50;;;;;;5073956;28;20068;-67
2023/03/05 13:07:53;;;;;;;4.97;0.93;;;13.20;95.60;;;;;;5070830;28;20055;-67